createdAt,value
2018-08-30T00:01:09.280Z,13.87
2018-08-30T00:03:38.475Z,12.47
2018-08-30T00:06:07.355Z,12.37
2018-08-30T00:08:36.071Z,12.67
2018-08-30T00:11:05.159Z,12.73
2018-08-30T00:13:34.087Z,12.87
2018-08-30T00:16:03.283Z,12.53
2018-08-30T00:18:32.146Z,13.70
2018-08-30T00:21:00.820Z,14.07
2018-08-30T00:23:29.688Z,12.77
2018-08-30T00:25:58.409Z,13.70
2018-08-30T00:28:27.735Z,12.97
2018-08-30T00:30:56.739Z,14.03
2018-08-30T00:33:25.988Z,13.83
2018-08-30T00:35:55.010Z,12.50
2018-08-30T00:38:23.971Z,14.13
2018-08-30T00:40:52.920Z,12.73
2018-08-30T00:43:21.837Z,13.03
2018-08-30T00:45:50.905Z,12.47
2018-08-30T00:48:19.791Z,13.13
2018-08-30T00:50:48.614Z,12.73
2018-08-30T00:53:17.285Z,13.87
2018-08-30T00:55:46.011Z,13.30
2018-08-30T00:58:15.147Z,13.10
2018-08-30T01:00:44.431Z,12.80
2018-08-30T01:03:13.707Z,12.20
2018-08-30T01:05:42.499Z,28.57
2018-08-30T01:08:11.347Z,13.50
2018-08-30T01:10:40.302Z,13.10
2018-08-30T01:13:09.218Z,11.27
2018-08-30T01:15:37.919Z,12.73
2018-08-30T01:18:06.887Z,12.27
2018-08-30T01:20:35.515Z,12.63
2018-08-30T01:23:04.307Z,12.63
2018-08-30T01:25:33.049Z,12.60
2018-08-30T01:28:02.474Z,12.10
2018-08-30T01:30:31.291Z,11.93
2018-08-30T01:33:00.318Z,12.53
2018-08-30T01:35:29.317Z,12.63
2018-08-30T01:37:58.184Z,12.50
2018-08-30T01:40:27.123Z,11.63
2018-08-30T01:42:55.978Z,12.27
2018-08-30T01:45:24.864Z,12.13
2018-08-30T01:47:53.924Z,12.40
2018-08-30T01:50:22.887Z,11.47
2018-08-30T01:52:51.696Z,12.23
2018-08-30T01:55:20.425Z,12.80
2018-08-30T01:57:49.361Z,11.87
2018-08-30T02:00:18.555Z,12.63
2018-08-30T02:02:47.659Z,12.70
2018-08-30T02:05:16.698Z,12.17
2018-08-30T02:07:45.714Z,12.07
2018-08-30T02:10:14.577Z,12.23
2018-08-30T02:12:43.716Z,12.47
2018-08-30T02:15:12.659Z,12.80
2018-08-30T02:17:41.957Z,12.57
2018-08-30T02:20:10.999Z,13.67
2018-08-30T02:22:39.908Z,11.70
2018-08-30T02:25:08.660Z,12.90
2018-08-30T02:27:37.586Z,12.93
2018-08-30T02:30:07.403Z,12.77
2018-08-30T02:32:36.474Z,12.57
2018-08-30T02:35:05.502Z,12.97
2018-08-30T02:37:34.601Z,12.43
2018-08-30T02:40:03.588Z,12.80
2018-08-30T02:42:32.678Z,12.67
2018-08-30T02:45:01.535Z,13.07
2018-08-30T02:47:30.530Z,12.27
2018-08-30T02:49:59.487Z,13.17
2018-08-30T02:52:28.268Z,13.70
2018-08-30T02:54:57.061Z,13.23
2018-08-30T02:57:25.970Z,12.83
2018-08-30T02:59:55.204Z,13.23
2018-08-30T03:02:24.431Z,13.23
2018-08-30T03:04:53.403Z,13.63
2018-08-30T03:07:22.217Z,13.40
2018-08-30T03:09:51.088Z,13.43
2018-08-30T03:12:19.863Z,12.97
2018-08-30T03:15:09.035Z,13.70
2018-08-30T03:17:38.007Z,12.83
2018-08-30T03:20:09.204Z,14.23
2018-08-30T03:22:39.122Z,13.47
2018-08-30T03:25:08.146Z,12.57
2018-08-30T03:27:37.178Z,13.80
2018-08-30T03:30:06.900Z,14.40
2018-08-30T03:32:35.980Z,15.37
2018-08-30T03:35:04.902Z,13.37
2018-08-30T03:37:34.075Z,13.83
2018-08-30T03:40:03.364Z,15.73
2018-08-30T03:42:32.735Z,16.00
2018-08-30T03:45:01.980Z,14.23
2018-08-30T03:47:31.063Z,14.60
2018-08-30T03:50:00.195Z,15.00
2018-08-30T03:52:29.150Z,14.67
2018-08-30T03:54:58.067Z,14.77
2018-08-30T03:57:26.982Z,14.80
2018-08-30T03:59:55.907Z,16.63
2018-08-30T04:02:24.894Z,15.50
2018-08-30T04:04:53.926Z,17.40
2018-08-30T04:07:23.134Z,15.43
2018-08-30T04:09:52.124Z,16.20
2018-08-30T04:12:21.455Z,15.40
2018-08-30T04:14:50.419Z,15.07
2018-08-30T04:17:19.394Z,13.87
2018-08-30T04:19:48.319Z,14.83
2018-08-30T04:22:17.110Z,16.03
2018-08-30T04:24:45.829Z,14.23
2018-08-30T04:27:15.028Z,15.60
2018-08-30T04:29:43.896Z,15.03
2018-08-30T04:32:13.019Z,16.97
2018-08-30T04:34:42.083Z,19.23
2018-08-30T04:37:11.733Z,15.63
2018-08-30T04:39:40.671Z,15.30
2018-08-30T04:42:09.614Z,15.43
2018-08-30T04:44:38.552Z,15.53
2018-08-30T04:47:07.283Z,15.00
2018-08-30T04:49:36.388Z,15.80
2018-08-30T04:52:05.174Z,14.57
2018-08-30T04:54:33.894Z,14.13
2018-08-30T04:57:03.106Z,14.33
2018-08-30T04:59:32.031Z,14.00
2018-08-30T05:02:00.799Z,14.07
2018-08-30T05:04:29.994Z,14.67
2018-08-30T05:06:59.200Z,15.43
2018-08-30T05:09:28.481Z,15.70
2018-08-30T05:11:57.535Z,15.57
2018-08-30T05:14:26.616Z,15.27
2018-08-30T05:16:55.696Z,15.27
2018-08-30T05:19:24.683Z,14.97
2018-08-30T05:21:53.489Z,14.57
2018-08-30T05:24:22.100Z,15.17
2018-08-30T05:26:51.282Z,16.70
2018-08-30T05:29:20.111Z,16.20
2018-08-30T05:31:49.232Z,16.83
2018-08-30T05:34:18.164Z,17.00
2018-08-30T05:36:47.192Z,17.57
2018-08-30T05:39:16.067Z,18.23
2018-08-30T05:41:45.072Z,18.77
2018-08-30T05:44:15.014Z,17.53
2018-08-30T05:46:43.899Z,20.03
2018-08-30T05:49:12.817Z,17.63
2018-08-30T05:51:41.493Z,19.67
2018-08-30T05:54:10.240Z,17.27
2018-08-30T05:56:39.310Z,18.97
2018-08-30T05:59:08.469Z,19.07
2018-08-30T06:01:37.510Z,20.03
2018-08-30T06:04:06.703Z,19.70
2018-08-30T06:06:35.800Z,17.63
2018-08-30T06:09:05.517Z,17.40
2018-08-30T06:11:34.366Z,17.03
2018-08-30T06:14:03.294Z,17.23
2018-08-30T06:16:32.456Z,15.97
2018-08-30T06:19:01.741Z,16.03
2018-08-30T06:21:30.458Z,17.40
2018-08-30T06:23:59.207Z,15.67
2018-08-30T06:26:28.476Z,14.83
2018-08-30T06:28:57.233Z,16.17
2018-08-30T06:31:26.118Z,15.40
2018-08-30T06:33:55.090Z,16.93
2018-08-30T06:36:24.021Z,16.03
2018-08-30T06:38:53.394Z,15.53
2018-08-30T06:41:22.447Z,15.93
2018-08-30T06:43:51.284Z,17.10
2018-08-30T06:46:20.127Z,16.60
2018-08-30T06:48:49.089Z,15.50
2018-08-30T06:51:17.890Z,15.13
2018-08-30T06:53:46.621Z,16.80
2018-08-30T06:56:15.662Z,16.00
2018-08-30T06:58:44.811Z,14.90
2018-08-30T07:01:14.050Z,16.00
2018-08-30T07:03:43.027Z,15.10
2018-08-30T07:06:11.991Z,16.00
2018-08-30T07:08:40.951Z,14.33
2018-08-30T07:11:09.898Z,13.70
2018-08-30T07:13:38.745Z,14.50
2018-08-30T07:16:08.062Z,15.00
2018-08-30T07:18:37.038Z,13.80
2018-08-30T07:21:06.038Z,13.67
2018-08-30T07:23:34.827Z,13.97
2018-08-30T07:26:03.725Z,14.07
2018-08-30T07:28:32.833Z,14.73
2018-08-30T07:31:01.713Z,15.90
2018-08-30T07:33:30.605Z,15.67
2018-08-30T07:35:59.596Z,17.32
2018-08-30T07:38:28.419Z,17.57
2018-08-30T07:40:57.308Z,16.53
2018-08-30T07:43:26.266Z,15.97
2018-08-30T07:45:55.314Z,17.07
2018-08-30T07:48:24.146Z,16.57
2018-08-30T07:50:53.152Z,17.67
2018-08-30T07:53:22.022Z,16.87
2018-08-30T07:55:50.744Z,16.07
2018-08-30T07:58:19.623Z,16.37
2018-08-30T08:00:48.916Z,16.82
2018-08-30T08:03:19.300Z,17.62
2018-08-30T08:05:48.324Z,18.35
2018-08-30T08:08:17.188Z,15.90
2018-08-30T08:10:46.628Z,15.43
2018-08-30T08:13:15.458Z,16.12
2018-08-30T08:15:44.637Z,16.95
2018-08-30T08:18:13.558Z,17.77
2018-08-30T08:20:42.289Z,16.60
2018-08-30T08:23:11.051Z,16.57
2018-08-30T08:25:39.835Z,16.27
2018-08-30T08:28:08.924Z,15.85
2018-08-30T08:30:38.031Z,16.93
2018-08-30T08:33:06.859Z,14.55
2018-08-30T08:35:36.033Z,15.63
2018-08-30T08:38:05.000Z,15.30
2018-08-30T08:40:34.144Z,15.78
2018-08-30T08:43:02.886Z,16.32
2018-08-30T08:45:31.940Z,15.28
2018-08-30T08:48:01.096Z,14.07
2018-08-30T08:50:30.002Z,14.70
2018-08-30T08:52:58.715Z,14.38
2018-08-30T08:55:28.358Z,15.25
2018-08-30T08:57:57.612Z,14.95
2018-08-30T09:00:26.515Z,14.15
2018-08-30T09:02:55.476Z,14.13
2018-08-30T09:05:24.554Z,14.87
2018-08-30T09:07:53.679Z,14.03
2018-08-30T09:10:23.062Z,14.40
2018-08-30T09:12:52.059Z,13.13
2018-08-30T09:15:20.900Z,14.15
2018-08-30T09:17:49.822Z,13.13
2018-08-30T09:20:18.540Z,13.85
2018-08-30T09:22:47.490Z,13.45
2018-08-30T09:25:16.308Z,13.13
2018-08-30T09:27:45.442Z,12.45
2018-08-30T09:30:14.204Z,11.03
2018-08-30T09:32:43.028Z,11.25
2018-08-30T09:35:11.783Z,11.57
2018-08-30T09:37:40.617Z,11.85
2018-08-30T09:40:09.826Z,10.28
2018-08-30T09:42:38.794Z,11.22
2018-08-30T09:45:07.892Z,11.28
2018-08-30T09:47:36.815Z,11.55
2018-08-30T09:50:05.607Z,11.35
2018-08-30T09:52:34.310Z,10.82
2018-08-30T09:55:03.159Z,9.60
2018-08-30T09:57:32.469Z,10.10
2018-08-30T10:00:01.786Z,9.70
2018-08-30T10:02:34.812Z,10.08
2018-08-30T10:05:03.829Z,10.32
2018-08-30T10:07:32.738Z,10.72
2018-08-30T10:10:01.779Z,9.43
2018-08-30T10:12:30.833Z,9.85
2018-08-30T10:14:59.773Z,9.48
2018-08-30T10:17:28.818Z,10.18
2018-08-30T10:19:57.559Z,8.80
2018-08-30T10:22:26.340Z,9.53
2018-08-30T10:24:54.974Z,9.60
2018-08-30T10:27:25.044Z,9.15
2018-08-30T10:29:53.882Z,9.08
2018-08-30T10:32:22.809Z,9.30
2018-08-30T10:34:52.078Z,9.48
2018-08-30T10:37:20.914Z,10.00
2018-08-30T10:39:50.040Z,8.93
2018-08-30T10:42:19.138Z,9.28
2018-08-30T10:44:48.240Z,8.65
2018-08-30T10:47:17.412Z,9.50
2018-08-30T10:49:46.076Z,9.25
2018-08-30T10:52:14.882Z,8.78
2018-08-30T10:54:43.597Z,9.10
2018-08-30T10:57:12.515Z,10.60
2018-08-30T10:59:41.810Z,9.83
2018-08-30T11:02:10.715Z,9.90
2018-08-30T11:04:39.974Z,9.13
2018-08-30T11:07:09.234Z,8.60
2018-08-30T11:09:38.271Z,8.93
2018-08-30T11:12:06.935Z,9.35
2018-08-30T11:14:35.836Z,8.85
2018-08-30T11:17:05.186Z,8.90
2018-08-30T11:19:33.954Z,8.20
2018-08-30T11:22:02.645Z,9.13
2018-08-30T11:24:31.394Z,8.20
2018-08-30T11:27:00.118Z,9.28
2018-08-30T11:29:29.434Z,8.00
2018-08-30T11:31:58.432Z,8.75
2018-08-30T11:34:27.514Z,8.58
2018-08-30T11:36:56.261Z,8.28
2018-08-30T11:39:25.385Z,7.58
2018-08-30T11:41:54.419Z,8.15
2018-08-30T11:44:23.174Z,8.13
2018-08-30T11:46:52.283Z,5.53
2018-08-30T11:49:21.458Z,5.17
2018-08-30T11:51:50.291Z,6.17
2018-08-30T11:54:19.013Z,6.55
2018-08-30T11:56:47.885Z,6.15
2018-08-30T11:59:16.695Z,6.70
2018-08-30T12:01:45.663Z,6.58
2018-08-30T12:04:14.628Z,7.33
2018-08-30T12:06:43.722Z,7.92
2018-08-30T12:09:12.771Z,7.53
2018-08-30T12:11:42.145Z,8.80
2018-08-30T12:14:10.878Z,7.05
2018-08-30T12:16:39.670Z,6.78
2018-08-30T12:19:08.794Z,7.12
2018-08-30T12:21:37.440Z,7.78
2018-08-30T12:24:06.292Z,7.70
2018-08-30T12:26:35.219Z,7.12
2018-08-30T12:29:04.280Z,7.35
2018-08-30T12:31:33.481Z,7.45
2018-08-30T12:34:02.444Z,8.93
2018-08-30T12:36:31.632Z,8.50
2018-08-30T12:39:00.475Z,9.28
2018-08-30T12:41:29.705Z,9.13
2018-08-30T12:43:59.029Z,9.40
2018-08-30T12:46:28.114Z,8.00
2018-08-30T12:48:57.146Z,8.78
2018-08-30T12:51:26.072Z,9.15
2018-08-30T12:53:54.617Z,8.50
2018-08-30T12:56:23.864Z,8.53
2018-08-30T12:58:56.655Z,8.60
2018-08-30T13:01:25.657Z,8.70
2018-08-30T13:03:54.458Z,9.48
2018-08-30T13:06:23.744Z,9.85
2018-08-30T13:08:53.012Z,9.78
2018-08-30T13:11:21.987Z,9.98
2018-08-30T13:13:50.896Z,10.40
2018-08-30T13:16:19.862Z,10.70
2018-08-30T13:18:48.790Z,10.60
2018-08-30T13:21:17.602Z,9.20
2018-08-30T13:23:46.479Z,10.93
2018-08-30T13:26:15.514Z,9.18
2018-08-30T13:28:44.483Z,8.63
2018-08-30T13:31:13.378Z,8.78
2018-08-30T13:33:42.669Z,9.03
2018-08-30T13:36:11.388Z,9.23
2018-08-30T13:38:40.743Z,9.55
2018-08-30T13:41:09.964Z,9.35
2018-08-30T13:43:38.745Z,9.33
2018-08-30T13:46:07.876Z,9.05
2018-08-30T13:48:36.700Z,8.88
2018-08-30T13:51:05.612Z,9.05
2018-08-30T13:53:34.255Z,10.20
2018-08-30T13:56:03.259Z,10.40
2018-08-30T13:58:32.446Z,10.00
2018-08-30T14:01:01.231Z,9.93
2018-08-30T14:03:30.098Z,9.38
2018-08-30T14:05:58.869Z,10.50
2018-08-30T14:08:28.277Z,10.38
2018-08-30T14:10:57.587Z,9.90
2018-08-30T14:13:26.834Z,9.80
2018-08-30T14:15:55.486Z,10.23
2018-08-30T14:18:24.352Z,9.50
2018-08-30T14:20:53.091Z,8.63
2018-08-30T14:23:22.125Z,9.88
2018-08-30T14:25:50.944Z,10.35
2018-08-30T14:28:19.681Z,9.45
2018-08-30T14:30:48.769Z,9.90
2018-08-30T14:33:18.265Z,9.68
2018-08-30T14:35:48.606Z,9.50
2018-08-30T14:38:17.599Z,10.80
2018-08-30T14:40:47.052Z,9.48
2018-08-30T14:43:15.918Z,9.43
2018-08-30T14:45:44.926Z,9.43
2018-08-30T14:48:14.027Z,9.93
2018-08-30T14:50:42.814Z,8.93
2018-08-30T14:53:11.627Z,9.50
2018-08-30T14:55:40.698Z,8.55
2018-08-30T14:58:09.806Z,9.65
2018-08-30T15:00:38.588Z,11.30
2018-08-30T15:03:07.598Z,9.50
2018-08-30T15:05:36.557Z,8.98
2018-08-30T15:08:05.632Z,9.25
2018-08-30T15:10:34.398Z,9.83
2018-08-30T15:13:03.254Z,9.65
2018-08-30T15:15:32.054Z,9.80
2018-08-30T15:18:00.826Z,9.60
2018-08-30T15:20:29.494Z,10.45
2018-08-30T15:22:58.290Z,10.80
2018-08-30T15:25:27.440Z,10.23
2018-08-30T15:27:56.252Z,11.22
2018-08-30T15:30:25.437Z,10.58
2018-08-30T15:32:54.296Z,10.90
2018-08-30T15:35:23.119Z,11.80
2018-08-30T15:37:52.042Z,10.60
2018-08-30T15:40:21.107Z,11.15
2018-08-30T15:42:50.377Z,11.43
2018-08-30T15:45:19.504Z,12.10
2018-08-30T15:47:48.660Z,11.85
2018-08-30T15:50:17.505Z,11.48
2018-08-30T15:52:46.337Z,11.05
2018-08-30T15:55:15.486Z,11.33
2018-08-30T15:57:44.579Z,11.05
2018-08-30T16:00:15.784Z,12.10
2018-08-30T16:02:45.185Z,12.05
2018-08-30T16:05:14.246Z,11.20
2018-08-30T16:07:43.759Z,11.55
2018-08-30T16:10:13.610Z,14.13
2018-08-30T16:12:42.539Z,13.58
2018-08-30T16:15:11.802Z,11.38
2018-08-30T16:17:40.556Z,11.25
2018-08-30T16:20:09.378Z,8.40
2018-08-30T16:23:09.002Z,7.70
2018-08-30T16:25:37.891Z,8.08
2018-08-30T16:28:07.055Z,9.28
2018-08-30T16:30:36.168Z,8.68
2018-08-30T16:33:05.242Z,9.83
2018-08-30T16:35:34.220Z,8.65
2018-08-30T16:38:03.395Z,8.95
2018-08-30T16:40:32.389Z,9.03
2018-08-30T16:43:01.664Z,7.62
2018-08-30T16:45:30.568Z,8.53
2018-08-30T16:47:59.327Z,8.50
2018-08-30T16:50:28.202Z,7.90
2018-08-30T16:52:57.258Z,8.30
2018-08-30T16:55:26.258Z,9.10
2018-08-30T16:57:55.162Z,8.33
2018-08-30T17:00:24.644Z,8.25
2018-08-30T17:02:54.166Z,8.43
2018-08-30T17:05:23.262Z,9.85
2018-08-30T17:07:52.208Z,11.15
2018-08-30T17:10:21.060Z,10.63
2018-08-30T17:12:50.116Z,11.10
2018-08-30T17:15:19.247Z,11.10
2018-08-30T17:17:48.342Z,12.53
2018-08-30T17:20:21.844Z,11.43
2018-08-30T17:22:50.830Z,11.35
2018-08-30T17:25:19.701Z,13.35
2018-08-30T17:27:48.823Z,13.10
2018-08-30T17:30:17.542Z,12.47
2018-08-30T17:32:46.358Z,13.53
2018-08-30T17:35:15.500Z,12.53
2018-08-30T17:37:44.435Z,12.70
2018-08-30T17:40:13.474Z,11.95
2018-08-30T17:42:42.795Z,13.58
2018-08-30T17:45:11.899Z,14.15
2018-08-30T17:47:40.839Z,14.03
2018-08-30T17:50:10.142Z,14.25
2018-08-30T17:52:39.022Z,14.93
2018-08-30T17:55:08.079Z,13.65
2018-08-30T17:57:37.054Z,13.05
2018-08-30T18:00:07.461Z,12.75
2018-08-30T18:02:36.575Z,11.40
2018-08-30T18:05:06.250Z,11.22
2018-08-30T18:07:35.411Z,10.95
2018-08-30T18:10:04.746Z,12.13
2018-08-30T18:12:35.309Z,11.48
2018-08-30T18:15:03.584Z,29.52
2018-08-30T18:17:32.393Z,18.65
2018-08-30T18:20:01.212Z,14.68
2018-08-30T18:22:30.142Z,15.10
2018-08-30T18:24:58.884Z,17.10
2018-08-30T18:27:27.554Z,15.93
2018-08-30T18:29:56.483Z,15.78
2018-08-30T18:32:25.396Z,16.60
2018-08-30T18:34:54.614Z,15.10
2018-08-30T18:37:23.770Z,15.95
2018-08-30T18:39:52.766Z,15.68
2018-08-30T18:42:21.576Z,15.03
2018-08-30T18:44:50.339Z,15.47
2018-08-30T18:47:19.175Z,13.37
2018-08-30T18:49:47.908Z,15.53
2018-08-30T18:52:16.625Z,15.57
2018-08-30T18:54:45.571Z,13.83
2018-08-30T18:57:14.304Z,14.57
2018-08-30T18:59:43.087Z,13.77
2018-08-30T19:02:12.019Z,14.37
2018-08-30T19:04:41.187Z,13.43
2018-08-30T19:07:10.289Z,14.07
2018-08-30T19:09:39.477Z,13.27
2018-08-30T19:12:08.561Z,13.47
2018-08-30T19:14:37.456Z,14.90
2018-08-30T19:17:11.978Z,14.60
2018-08-30T19:19:40.653Z,15.27
2018-08-30T19:22:09.375Z,13.97
2018-08-30T19:24:43.458Z,15.13
2018-08-30T19:27:12.468Z,14.50
2018-08-30T19:29:46.290Z,12.37
2018-08-30T19:32:15.432Z,13.63
2018-08-30T19:34:44.155Z,13.07
2018-08-30T19:37:13.038Z,13.97
2018-08-30T19:39:41.929Z,14.63
2018-08-30T19:42:10.735Z,13.33
2018-08-30T19:44:39.679Z,13.30
2018-08-30T19:47:08.728Z,13.00
2018-08-30T19:49:37.451Z,13.60
2018-08-30T19:52:06.306Z,12.40
2018-08-30T19:54:35.273Z,12.97
2018-08-30T19:57:04.499Z,12.50
2018-08-30T19:59:33.847Z,13.00
2018-08-30T20:02:02.992Z,12.60
2018-08-30T20:04:31.832Z,12.83
2018-08-30T20:07:00.506Z,12.67
2018-08-30T20:09:29.430Z,13.90
2018-08-30T20:11:58.314Z,16.27
2018-08-30T20:14:27.406Z,16.07
2018-08-30T20:16:56.493Z,14.50
2018-08-30T20:19:25.336Z,15.07
2018-08-30T20:21:54.153Z,14.47
2018-08-30T20:24:22.896Z,13.70
2018-08-30T20:26:51.924Z,13.30
2018-08-30T20:29:20.771Z,12.27
2018-08-30T20:31:49.682Z,12.70
2018-08-30T20:34:18.511Z,12.17
2018-08-30T20:36:47.230Z,12.90
2018-08-30T20:39:15.909Z,12.03
2018-08-30T20:41:44.854Z,11.60
2018-08-30T20:44:14.043Z,13.20
2018-08-30T20:46:43.410Z,12.80
2018-08-30T20:49:12.182Z,12.20
2018-08-30T20:51:40.978Z,12.83
2018-08-30T20:54:10.174Z,11.57
2018-08-30T20:56:39.387Z,12.80
2018-08-30T20:59:09.465Z,12.77
2018-08-30T21:01:38.590Z,12.87
2018-08-30T21:04:07.441Z,11.83
2018-08-30T21:09:15.362Z,13.20
2018-08-30T21:11:44.131Z,12.47
2018-08-30T21:14:13.202Z,11.77
2018-08-30T21:16:42.085Z,11.63
2018-08-30T21:19:10.892Z,11.73
2018-08-30T21:21:39.616Z,11.40
2018-08-30T21:24:08.569Z,12.20
2018-08-30T21:26:37.694Z,12.40
2018-08-30T21:29:06.835Z,12.07
2018-08-30T21:31:35.900Z,11.40
2018-08-30T21:34:04.838Z,12.20
2018-08-30T21:36:33.954Z,12.50
2018-08-30T21:39:02.798Z,11.67
2018-08-30T21:41:31.710Z,12.37
2018-08-30T21:44:00.737Z,10.87
2018-08-30T21:46:29.627Z,10.77
2018-08-30T21:48:58.388Z,12.63
2018-08-30T21:51:27.371Z,11.27
2018-08-30T21:53:56.247Z,11.10
2018-08-30T21:56:25.467Z,11.80
2018-08-30T21:58:54.420Z,11.23
2018-08-30T22:01:23.407Z,11.63
2018-08-30T22:03:52.289Z,11.40
2018-08-30T22:06:21.191Z,12.03
2018-08-30T22:08:49.887Z,11.03
2018-08-30T22:11:18.727Z,12.83
2018-08-30T22:13:47.931Z,12.20
2018-08-30T22:16:16.737Z,12.30
2018-08-30T22:18:45.476Z,12.23
2018-08-30T22:21:14.161Z,11.43
2018-08-30T22:23:42.965Z,11.67
2018-08-30T22:26:11.982Z,12.00
2018-08-30T22:28:41.280Z,11.27
2018-08-30T22:31:10.220Z,11.43
2018-08-30T22:33:39.266Z,11.63
2018-08-30T22:36:08.190Z,11.87
2018-08-30T22:38:37.357Z,11.00
2018-08-30T22:41:06.475Z,11.17
2018-08-30T22:43:35.418Z,11.03
2018-08-30T22:46:04.218Z,11.53
2018-08-30T22:48:33.147Z,11.37
2018-08-30T22:51:01.803Z,11.80
2018-08-30T22:53:30.753Z,11.47
2018-08-30T22:55:59.653Z,11.30
2018-08-30T22:58:28.745Z,10.53
2018-08-30T23:00:57.786Z,12.10
2018-08-30T23:03:27.062Z,12.00
2018-08-30T23:05:56.099Z,10.60
2018-08-30T23:08:24.976Z,11.90
2018-08-30T23:10:54.374Z,11.73
2018-08-30T23:13:23.457Z,11.73
2018-08-30T23:15:52.191Z,12.00
2018-08-30T23:18:20.979Z,11.97
2018-08-30T23:20:49.727Z,12.10
2018-08-30T23:23:19.076Z,11.80
2018-08-30T23:25:47.762Z,11.00
2018-08-30T23:28:16.680Z,12.73
2018-08-30T23:30:45.799Z,10.67
2018-08-30T23:33:14.803Z,11.40
2018-08-30T23:35:43.931Z,11.67
2018-08-30T23:38:12.890Z,11.70
2018-08-30T23:40:41.957Z,11.33
2018-08-30T23:43:10.773Z,11.30
2018-08-30T23:45:39.530Z,11.97
2018-08-30T23:48:08.323Z,11.90
2018-08-30T23:50:37.051Z,11.30
2018-08-30T23:53:06.103Z,11.40
2018-08-30T23:55:35.006Z,10.63
2018-08-30T23:58:14.890Z,11.17
